sensor_id;sensor_type;location;lat;lon;timestamp;P1;durP1;ratioP1;P2;durP2;ratioP2
41657;SDS011;27347;57.132;-2.084;2022-11-04T00:01:31;2.53;;;1.58;;
41657;SDS011;27347;57.132;-2.084;2022-11-04T00:03:57;2.42;;;1.17;;
41657;SDS011;27347;57.132;-2.084;2022-11-04T00:06:23;3.47;;;1.38;;
41657;SDS011;27347;57.132;-2.084;2022-11-04T00:08:49;3.22;;;1.40;;
41657;SDS011;27347;57.132;-2.084;2022-11-04T00:11:18;4.38;;;1.30;;
41657;SDS011;27347;57.132;-2.084;2022-11-04T00:14:03;6.85;;;2.70;;
41657;SDS011;27347;57.132;-2.084;2022-11-04T00:16:29;5.07;;;1.80;;
41657;SDS011;27347;57.132;-2.084;2022-11-04T00:19:13;3.75;;;1.67;;
41657;SDS011;27347;57.132;-2.084;2022-11-04T00:21:39;3.22;;;1.40;;
41657;SDS011;27347;57.132;-2.084;2022-11-04T00:24:22;5.83;;;1.83;;
41657;SDS011;27347;57.132;-2.084;2022-11-04T00:27:15;4.72;;;1.52;;
41657;SDS011;27347;57.132;-2.084;2022-11-04T00:30:01;5.53;;;1.80;;
41657;SDS011;27347;57.132;-2.084;2022-11-04T00:32:27;4.70;;;1.40;;
41657;SDS011;27347;57.132;-2.084;2022-11-04T00:35:11;4.28;;;1.52;;
41657;SDS011;27347;57.132;-2.084;2022-11-04T00:37:37;2.72;;;1.98;;
41657;SDS011;27347;57.132;-2.084;2022-11-04T00:40:03;2.92;;;1.40;;
41657;SDS011;27347;57.132;-2.084;2022-11-04T00:42:29;5.03;;;1.50;;
41657;SDS011;27347;57.132;-2.084;2022-11-04T00:44:55;3.28;;;1.30;;
41657;SDS011;27347;57.132;-2.084;2022-11-04T00:47:20;4.47;;;1.30;;
41657;SDS011;27347;57.132;-2.084;2022-11-04T00:49:45;3.05;;;1.60;;
41657;SDS011;27347;57.132;-2.084;2022-11-04T00:52:11;3.40;;;1.48;;
41657;SDS011;27347;57.132;-2.084;2022-11-04T00:54:36;1.83;;;1.10;;
41657;SDS011;27347;57.132;-2.084;2022-11-04T00:57:02;2.85;;;1.33;;
41657;SDS011;27347;57.132;-2.084;2022-11-04T00:59:27;3.58;;;1.73;;
41657;SDS011;27347;57.132;-2.084;2022-11-04T01:01:52;5.15;;;1.30;;
41657;SDS011;27347;57.132;-2.084;2022-11-04T01:04:18;2.03;;;1.30;;
41657;SDS011;27347;57.132;-2.084;2022-11-04T01:06:43;2.63;;;1.30;;
41657;SDS011;27347;57.132;-2.084;2022-11-04T01:09:10;4.43;;;1.30;;
41657;SDS011;27347;57.132;-2.084;2022-11-04T01:11:36;2.83;;;1.40;;
41657;SDS011;27347;57.132;-2.084;2022-11-04T01:14:01;3.40;;;1.55;;
41657;SDS011;27347;57.132;-2.084;2022-11-04T01:16:27;6.38;;;1.50;;
41657;SDS011;27347;57.132;-2.084;2022-11-04T01:18:52;2.83;;;1.00;;
41657;SDS011;27347;57.132;-2.084;2022-11-04T01:21:18;2.30;;;1.27;;
41657;SDS011;27347;57.132;-2.084;2022-11-04T01:23:44;2.63;;;1.30;;
41657;SDS011;27347;57.132;-2.084;2022-11-04T01:26:14;3.30;;;1.40;;
41657;SDS011;27347;57.132;-2.084;2022-11-04T01:28:41;3.22;;;1.23;;
41657;SDS011;27347;57.132;-2.084;2022-11-04T01:31:07;2.50;;;1.15;;
41657;SDS011;27347;57.132;-2.084;2022-11-04T01:33:33;2.88;;;1.00;;
41657;SDS011;27347;57.132;-2.084;2022-11-04T01:35:59;2.40;;;1.30;;
41657;SDS011;27347;57.132;-2.084;2022-11-04T01:38:25;2.45;;;1.23;;
41657;SDS011;27347;57.132;-2.084;2022-11-04T01:40:50;6.45;;;1.40;;
41657;SDS011;27347;57.132;-2.084;2022-11-04T01:43:19;3.78;;;1.00;;
41657;SDS011;27347;57.132;-2.084;2022-11-04T01:45:51;4.50;;;1.20;;
41657;SDS011;27347;57.132;-2.084;2022-11-04T01:50:50;3.42;;;1.08;;
41657;SDS011;27347;57.132;-2.084;2022-11-04T01:53:33;2.42;;;1.17;;
41657;SDS011;27347;57.132;-2.084;2022-11-04T01:56:04;2.58;;;1.02;;
41657;SDS011;27347;57.132;-2.084;2022-11-04T01:58:36;3.05;;;1.20;;
41657;SDS011;27347;57.132;-2.084;2022-11-04T02:01:04;2.20;;;1.10;;
41657;SDS011;27347;57.132;-2.084;2022-11-04T02:06:46;3.15;;;1.20;;
41657;SDS011;27347;57.132;-2.084;2022-11-04T02:09:12;5.68;;;1.13;;
41657;SDS011;27347;57.132;-2.084;2022-11-04T02:11:38;3.88;;;1.10;;
41657;SDS011;27347;57.132;-2.084;2022-11-04T02:14:22;1.37;;;0.90;;
41657;SDS011;27347;57.132;-2.084;2022-11-04T02:16:47;1.45;;;0.90;;
41657;SDS011;27347;57.132;-2.084;2022-11-04T02:27:31;4.47;;;1.00;;
41657;SDS011;27347;57.132;-2.084;2022-11-04T02:30:06;2.85;;;0.90;;
41657;SDS011;27347;57.132;-2.084;2022-11-04T02:32:38;3.03;;;0.90;;
41657;SDS011;27347;57.132;-2.084;2022-11-04T02:35:09;2.33;;;0.70;;
41657;SDS011;27347;57.132;-2.084;2022-11-04T02:46:03;1.80;;;0.85;;
41657;SDS011;27347;57.132;-2.084;2022-11-04T02:48:56;2.90;;;0.80;;
41657;SDS011;27347;57.132;-2.084;2022-11-04T02:54:14;3.30;;;0.90;;
41657;SDS011;27347;57.132;-2.084;2022-11-04T02:56:44;3.33;;;0.90;;
41657;SDS011;27347;57.132;-2.084;2022-11-04T03:01:54;3.42;;;0.90;;
41657;SDS011;27347;57.132;-2.084;2022-11-04T03:04:25;1.13;;;0.80;;
41657;SDS011;27347;57.132;-2.084;2022-11-04T03:06:53;1.65;;;0.90;;
41657;SDS011;27347;57.132;-2.084;2022-11-04T03:09:19;2.47;;;0.90;;
41657;SDS011;27347;57.132;-2.084;2022-11-04T03:11:47;3.75;;;0.90;;
41657;SDS011;27347;57.132;-2.084;2022-11-04T03:14:17;1.20;;;0.70;;
41657;SDS011;27347;57.132;-2.084;2022-11-04T03:16:46;1.45;;;0.80;;
41657;SDS011;27347;57.132;-2.084;2022-11-04T03:19:28;1.80;;;0.70;;
41657;SDS011;27347;57.132;-2.084;2022-11-04T03:22:04;2.05;;;0.90;;
41657;SDS011;27347;57.132;-2.084;2022-11-04T03:24:41;2.60;;;1.05;;
41657;SDS011;27347;57.132;-2.084;2022-11-04T03:29:47;2.30;;;0.95;;
41657;SDS011;27347;57.132;-2.084;2022-11-04T03:34:46;1.08;;;0.82;;
41657;SDS011;27347;57.132;-2.084;2022-11-04T03:37:11;1.60;;;0.85;;
41657;SDS011;27347;57.132;-2.084;2022-11-04T03:39:36;0.65;;;0.65;;
41657;SDS011;27347;57.132;-2.084;2022-11-04T03:42:05;5.68;;;1.10;;
41657;SDS011;27347;57.132;-2.084;2022-11-04T03:44:53;1.25;;;0.70;;
41657;SDS011;27347;57.132;-2.084;2022-11-04T03:47:21;2.00;;;0.80;;
41657;SDS011;27347;57.132;-2.084;2022-11-04T03:49:48;4.68;;;0.93;;
41657;SDS011;27347;57.132;-2.084;2022-11-04T03:52:16;1.13;;;0.90;;
41657;SDS011;27347;57.132;-2.084;2022-11-04T03:54:43;2.15;;;0.70;;
41657;SDS011;27347;57.132;-2.084;2022-11-04T04:00:23;1.17;;;0.45;;
41657;SDS011;27347;57.132;-2.084;2022-11-04T04:02:54;2.58;;;0.82;;
41657;SDS011;27347;57.132;-2.084;2022-11-04T04:05:31;6.75;;;1.85;;
41657;SDS011;27347;57.132;-2.084;2022-11-04T04:10:28;4.50;;;1.20;;
41657;SDS011;27347;57.132;-2.084;2022-11-04T04:16:14;1.52;;;0.80;;
41657;SDS011;27347;57.132;-2.084;2022-11-04T04:18:37;3.40;;;0.75;;
41657;SDS011;27347;57.132;-2.084;2022-11-04T04:21:07;2.42;;;0.90;;
41657;SDS011;27347;57.132;-2.084;2022-11-04T04:23:34;4.20;;;0.77;;
41657;SDS011;27347;57.132;-2.084;2022-11-04T04:29:03;1.30;;;0.65;;
41657;SDS011;27347;57.132;-2.084;2022-11-04T04:31:30;1.98;;;0.70;;
41657;SDS011;27347;57.132;-2.084;2022-11-04T04:37:06;3.35;;;0.70;;
41657;SDS011;27347;57.132;-2.084;2022-11-04T04:39:45;3.83;;;0.75;;
41657;SDS011;27347;57.132;-2.084;2022-11-04T04:42:32;1.80;;;0.85;;
41657;SDS011;27347;57.132;-2.084;2022-11-04T04:45:24;1.25;;;0.73;;
41657;SDS011;27347;57.132;-2.084;2022-11-04T04:47:54;4.13;;;1.02;;
41657;SDS011;27347;57.132;-2.084;2022-11-04T04:50:20;3.25;;;0.85;;
41657;SDS011;27347;57.132;-2.084;2022-11-04T04:52:49;1.90;;;0.70;;
41657;SDS011;27347;57.132;-2.084;2022-11-04T04:55:15;2.85;;;0.82;;
41657;SDS011;27347;57.132;-2.084;2022-11-04T04:57:41;1.60;;;0.60;;
41657;SDS011;27347;57.132;-2.084;2022-11-04T05:00:07;3.03;;;1.00;;
41657;SDS011;27347;57.132;-2.084;2022-11-04T05:02:36;3.55;;;0.73;;
41657;SDS011;27347;57.132;-2.084;2022-11-04T05:05:01;2.80;;;0.50;;
41657;SDS011;27347;57.132;-2.084;2022-11-04T05:07:27;1.33;;;0.60;;
41657;SDS011;27347;57.132;-2.084;2022-11-04T05:09:52;1.35;;;0.60;;
41657;SDS011;27347;57.132;-2.084;2022-11-04T05:12:18;5.43;;;1.02;;
41657;SDS011;27347;57.132;-2.084;2022-11-04T05:14:43;1.85;;;0.52;;
41657;SDS011;27347;57.132;-2.084;2022-11-04T05:17:08;1.55;;;0.70;;
41657;SDS011;27347;57.132;-2.084;2022-11-04T05:19:34;0.82;;;0.60;;
41657;SDS011;27347;57.132;-2.084;2022-11-04T05:21:59;2.88;;;0.88;;
41657;SDS011;27347;57.132;-2.084;2022-11-04T05:24:25;2.78;;;0.60;;
41657;SDS011;27347;57.132;-2.084;2022-11-04T05:26:50;3.45;;;1.00;;
41657;SDS011;27347;57.132;-2.084;2022-11-04T05:29:16;4.15;;;0.77;;
41657;SDS011;27347;57.132;-2.084;2022-11-04T05:31:41;2.50;;;0.73;;
41657;SDS011;27347;57.132;-2.084;2022-11-04T05:34:09;3.33;;;0.98;;
41657;SDS011;27347;57.132;-2.084;2022-11-04T05:36:35;3.40;;;0.95;;
41657;SDS011;27347;57.132;-2.084;2022-11-04T05:39:01;1.42;;;0.70;;
41657;SDS011;27347;57.132;-2.084;2022-11-04T05:41:27;2.05;;;0.57;;
41657;SDS011;27347;57.132;-2.084;2022-11-04T05:43:53;4.38;;;1.92;;
41657;SDS011;27347;57.132;-2.084;2022-11-04T05:46:20;1.13;;;0.68;;
41657;SDS011;27347;57.132;-2.084;2022-11-04T05:48:45;2.35;;;0.65;;
41657;SDS011;27347;57.132;-2.084;2022-11-04T05:51:12;1.45;;;0.70;;
41657;SDS011;27347;57.132;-2.084;2022-11-04T05:53:41;1.40;;;0.50;;
41657;SDS011;27347;57.132;-2.084;2022-11-04T05:56:06;1.08;;;0.60;;
41657;SDS011;27347;57.132;-2.084;2022-11-04T05:58:32;1.27;;;0.52;;
41657;SDS011;27347;57.132;-2.084;2022-11-04T06:03:49;2.70;;;0.60;;
41657;SDS011;27347;57.132;-2.084;2022-11-04T06:06:14;2.50;;;0.70;;
41657;SDS011;27347;57.132;-2.084;2022-11-04T06:08:40;2.22;;;0.52;;
41657;SDS011;27347;57.132;-2.084;2022-11-04T06:11:05;6.85;;;0.98;;
41657;SDS011;27347;57.132;-2.084;2022-11-04T06:13:31;11.35;;;1.27;;
41657;SDS011;27347;57.132;-2.084;2022-11-04T06:15:57;2.25;;;0.50;;
41657;SDS011;27347;57.132;-2.084;2022-11-04T06:18:22;1.77;;;0.70;;
41657;SDS011;27347;57.132;-2.084;2022-11-04T06:20:47;8.40;;;1.52;;
41657;SDS011;27347;57.132;-2.084;2022-11-04T06:23:13;1.85;;;0.57;;
41657;SDS011;27347;57.132;-2.084;2022-11-04T06:25:38;3.35;;;0.60;;
41657;SDS011;27347;57.132;-2.084;2022-11-04T06:28:04;1.95;;;0.63;;
41657;SDS011;27347;57.132;-2.084;2022-11-04T06:30:29;1.70;;;0.68;;
41657;SDS011;27347;57.132;-2.084;2022-11-04T06:32:54;1.17;;;0.60;;
41657;SDS011;27347;57.132;-2.084;2022-11-04T06:35:20;3.38;;;0.77;;
41657;SDS011;27347;57.132;-2.084;2022-11-04T06:37:45;1.90;;;0.57;;
41657;SDS011;27347;57.132;-2.084;2022-11-04T06:40:10;1.33;;;0.60;;
41657;SDS011;27347;57.132;-2.084;2022-11-04T06:42:36;1.15;;;0.50;;
41657;SDS011;27347;57.132;-2.084;2022-11-04T06:45:02;1.17;;;0.52;;
41657;SDS011;27347;57.132;-2.084;2022-11-04T06:47:28;1.25;;;0.60;;
41657;SDS011;27347;57.132;-2.084;2022-11-04T06:49:53;2.03;;;0.80;;
41657;SDS011;27347;57.132;-2.084;2022-11-04T06:52:19;3.58;;;0.77;;
41657;SDS011;27347;57.132;-2.084;2022-11-04T06:54:44;2.65;;;1.10;;
41657;SDS011;27347;57.132;-2.084;2022-11-04T06:57:11;2.33;;;1.17;;
41657;SDS011;27347;57.132;-2.084;2022-11-04T06:59:37;2.63;;;1.45;;
41657;SDS011;27347;57.132;-2.084;2022-11-04T07:02:02;5.82;;;1.10;;
41657;SDS011;27347;57.132;-2.084;2022-11-04T07:04:28;1.95;;;0.90;;
41657;SDS011;27347;57.132;-2.084;2022-11-04T07:06:54;4.55;;;0.80;;
41657;SDS011;27347;57.132;-2.084;2022-11-04T07:09:19;1.92;;;0.82;;
41657;SDS011;27347;57.132;-2.084;2022-11-04T07:11:45;5.35;;;0.90;;
41657;SDS011;27347;57.132;-2.084;2022-11-04T07:14:10;0.50;;;0.50;;
41657;SDS011;27347;57.132;-2.084;2022-11-04T07:16:36;3.10;;;0.60;;
41657;SDS011;27347;57.132;-2.084;2022-11-04T07:19:01;2.33;;;0.70;;
41657;SDS011;27347;57.132;-2.084;2022-11-04T07:21:27;2.88;;;0.57;;
41657;SDS011;27347;57.132;-2.084;2022-11-04T07:23:52;1.20;;;0.52;;
41657;SDS011;27347;57.132;-2.084;2022-11-04T07:26:18;1.92;;;0.80;;
41657;SDS011;27347;57.132;-2.084;2022-11-04T07:28:43;1.38;;;0.65;;
41657;SDS011;27347;57.132;-2.084;2022-11-04T07:31:09;2.85;;;0.60;;
41657;SDS011;27347;57.132;-2.084;2022-11-04T07:33:36;1.80;;;0.60;;
41657;SDS011;27347;57.132;-2.084;2022-11-04T07:36:05;2.00;;;0.63;;
41657;SDS011;27347;57.132;-2.084;2022-11-04T07:38:33;1.05;;;0.70;;
41657;SDS011;27347;57.132;-2.084;2022-11-04T07:40:58;3.60;;;0.80;;
41657;SDS011;27347;57.132;-2.084;2022-11-04T07:43:24;4.20;;;0.80;;
41657;SDS011;27347;57.132;-2.084;2022-11-04T07:46:02;1.83;;;0.50;;
41657;SDS011;27347;57.132;-2.084;2022-11-04T07:48:29;4.55;;;0.98;;
41657;SDS011;27347;57.132;-2.084;2022-11-04T07:50:56;4.55;;;1.17;;
41657;SDS011;27347;57.132;-2.084;2022-11-04T07:53:23;4.05;;;0.70;;
41657;SDS011;27347;57.132;-2.084;2022-11-04T07:55:49;0.80;;;0.50;;
41657;SDS011;27347;57.132;-2.084;2022-11-04T07:58:15;1.10;;;0.80;;
41657;SDS011;27347;57.132;-2.084;2022-11-04T08:00:42;1.65;;;0.80;;
41657;SDS011;27347;57.132;-2.084;2022-11-04T08:03:07;3.60;;;0.73;;
41657;SDS011;27347;57.132;-2.084;2022-11-04T08:05:33;2.42;;;1.02;;
41657;SDS011;27347;57.132;-2.084;2022-11-04T08:07:59;0.88;;;0.50;;
41657;SDS011;27347;57.132;-2.084;2022-11-04T08:10:24;1.25;;;0.75;;
41657;SDS011;27347;57.132;-2.084;2022-11-04T08:12:50;1.85;;;0.68;;
41657;SDS011;27347;57.132;-2.084;2022-11-04T08:15:16;2.10;;;0.77;;
41657;SDS011;27347;57.132;-2.084;2022-11-04T08:17:41;2.38;;;0.68;;
41657;SDS011;27347;57.132;-2.084;2022-11-04T08:20:07;0.75;;;0.40;;
41657;SDS011;27347;57.132;-2.084;2022-11-04T08:22:33;1.05;;;0.90;;
41657;SDS011;27347;57.132;-2.084;2022-11-04T08:24:59;1.52;;;0.60;;
41657;SDS011;27347;57.132;-2.084;2022-11-04T08:27:24;0.60;;;0.60;;
41657;SDS011;27347;57.132;-2.084;2022-11-04T08:29:50;2.58;;;0.90;;
41657;SDS011;27347;57.132;-2.084;2022-11-04T08:32:15;1.85;;;0.77;;
41657;SDS011;27347;57.132;-2.084;2022-11-04T08:34:41;1.02;;;0.70;;
41657;SDS011;27347;57.132;-2.084;2022-11-04T08:37:06;1.88;;;0.80;;
41657;SDS011;27347;57.132;-2.084;2022-11-04T08:39:32;2.47;;;0.68;;
41657;SDS011;27347;57.132;-2.084;2022-11-04T08:41:57;0.60;;;0.55;;
41657;SDS011;27347;57.132;-2.084;2022-11-04T08:44:22;2.20;;;0.70;;
41657;SDS011;27347;57.132;-2.084;2022-11-04T08:46:48;4.25;;;0.98;;
41657;SDS011;27347;57.132;-2.084;2022-11-04T08:49:13;2.72;;;0.70;;
41657;SDS011;27347;57.132;-2.084;2022-11-04T08:51:40;2.67;;;0.85;;
41657;SDS011;27347;57.132;-2.084;2022-11-04T08:54:07;1.67;;;1.00;;
41657;SDS011;27347;57.132;-2.084;2022-11-04T08:56:34;2.95;;;0.70;;
41657;SDS011;27347;57.132;-2.084;2022-11-04T08:59:01;4.22;;;0.88;;
41657;SDS011;27347;57.132;-2.084;2022-11-04T09:01:28;1.95;;;1.10;;
41657;SDS011;27347;57.132;-2.084;2022-11-04T09:03:54;6.22;;;0.98;;
41657;SDS011;27347;57.132;-2.084;2022-11-04T09:06:21;4.30;;;1.65;;
41657;SDS011;27347;57.132;-2.084;2022-11-04T09:08:48;2.20;;;0.70;;
41657;SDS011;27347;57.132;-2.084;2022-11-04T09:11:14;4.38;;;1.00;;
41657;SDS011;27347;57.132;-2.084;2022-11-04T09:13:40;1.95;;;0.60;;
41657;SDS011;27347;57.132;-2.084;2022-11-04T09:16:07;2.90;;;0.73;;
41657;SDS011;27347;57.132;-2.084;2022-11-04T09:18:33;1.88;;;0.70;;
41657;SDS011;27347;57.132;-2.084;2022-11-04T09:20:59;4.03;;;2.10;;
41657;SDS011;27347;57.132;-2.084;2022-11-04T09:23:26;6.95;;;0.98;;
41657;SDS011;27347;57.132;-2.084;2022-11-04T09:25:52;3.00;;;1.02;;
41657;SDS011;27347;57.132;-2.084;2022-11-04T09:28:17;1.70;;;0.90;;
41657;SDS011;27347;57.132;-2.084;2022-11-04T09:30:42;3.67;;;0.90;;
41657;SDS011;27347;57.132;-2.084;2022-11-04T09:33:08;2.35;;;0.63;;
41657;SDS011;27347;57.132;-2.084;2022-11-04T09:35:34;5.18;;;1.00;;
41657;SDS011;27347;57.132;-2.084;2022-11-04T09:37:59;2.17;;;0.50;;
41657;SDS011;27347;57.132;-2.084;2022-11-04T09:40:25;3.40;;;0.68;;
41657;SDS011;27347;57.132;-2.084;2022-11-04T09:45:16;1.80;;;0.70;;
41657;SDS011;27347;57.132;-2.084;2022-11-04T09:47:50;5.88;;;0.82;;
41657;SDS011;27347;57.132;-2.084;2022-11-04T09:50:24;3.30;;;0.80;;
41657;SDS011;27347;57.132;-2.084;2022-11-04T09:52:56;2.45;;;1.15;;
41657;SDS011;27347;57.132;-2.084;2022-11-04T09:55:39;2.90;;;0.85;;
41657;SDS011;27347;57.132;-2.084;2022-11-04T09:58:09;3.70;;;0.70;;
41657;SDS011;27347;57.132;-2.084;2022-11-04T10:00:36;0.43;;;0.43;;
41657;SDS011;27347;57.132;-2.084;2022-11-04T10:22:10;4.03;;;2.47;;
41657;SDS011;27347;57.132;-2.084;2022-11-04T10:24:54;1.40;;;0.70;;
41657;SDS011;27347;57.132;-2.084;2022-11-04T10:27:43;1.10;;;0.80;;
41657;SDS011;27347;57.132;-2.084;2022-11-04T10:30:23;7.25;;;0.95;;
41657;SDS011;27347;57.132;-2.084;2022-11-04T10:40:41;3.95;;;1.38;;
41657;SDS011;27347;57.132;-2.084;2022-11-04T10:43:15;7.88;;;1.15;;
41657;SDS011;27347;57.132;-2.084;2022-11-04T10:45:53;4.07;;;0.80;;
41657;SDS011;27347;57.132;-2.084;2022-11-04T10:48:27;3.83;;;1.15;;
41657;SDS011;27347;57.132;-2.084;2022-11-04T10:50:56;3.33;;;1.10;;
41657;SDS011;27347;57.132;-2.084;2022-11-04T10:53:24;1.77;;;0.70;;
41657;SDS011;27347;57.132;-2.084;2022-11-04T10:58:23;3.40;;;0.88;;
41657;SDS011;27347;57.132;-2.084;2022-11-04T11:00:49;1.55;;;0.80;;
41657;SDS011;27347;57.132;-2.084;2022-11-04T11:03:31;2.75;;;0.90;;
41657;SDS011;27347;57.132;-2.084;2022-11-04T11:06:59;3.45;;;0.77;;
41657;SDS011;27347;57.132;-2.084;2022-11-04T11:11:46;4.18;;;1.00;;
41657;SDS011;27347;57.132;-2.084;2022-11-04T11:16:56;2.58;;;0.70;;
41657;SDS011;27347;57.132;-2.084;2022-11-04T11:19:48;2.83;;;1.02;;
41657;SDS011;27347;57.132;-2.084;2022-11-04T11:25:09;3.55;;;1.00;;
41657;SDS011;27347;57.132;-2.084;2022-11-04T11:27:59;1.90;;;1.02;;
41657;SDS011;27347;57.132;-2.084;2022-11-04T11:35:59;1.10;;;0.50;;
41657;SDS011;27347;57.132;-2.084;2022-11-04T11:38:36;2.35;;;0.60;;
41657;SDS011;27347;57.132;-2.084;2022-11-04T11:43:35;2.78;;;0.57;;
41657;SDS011;27347;57.132;-2.084;2022-11-04T11:46:06;3.60;;;0.40;;
41657;SDS011;27347;57.132;-2.084;2022-11-04T11:48:34;1.95;;;0.55;;
41657;SDS011;27347;57.132;-2.084;2022-11-04T11:51:03;3.22;;;0.70;;
41657;SDS011;27347;57.132;-2.084;2022-11-04T11:53:29;1.77;;;0.68;;
41657;SDS011;27347;57.132;-2.084;2022-11-04T11:58:54;4.57;;;0.70;;
41657;SDS011;27347;57.132;-2.084;2022-11-04T12:01:38;3.70;;;0.88;;
41657;SDS011;27347;57.132;-2.084;2022-11-04T12:04:06;4.25;;;0.70;;
41657;SDS011;27347;57.132;-2.084;2022-11-04T12:12:18;3.42;;;1.00;;
41657;SDS011;27347;57.132;-2.084;2022-11-04T12:20:24;0.82;;;0.40;;
41657;SDS011;27347;57.132;-2.084;2022-11-04T12:37:22;7.25;;;0.93;;
41657;SDS011;27347;57.132;-2.084;2022-11-04T12:40:10;4.30;;;0.60;;
41657;SDS011;27347;57.132;-2.084;2022-11-04T12:47:51;4.00;;;0.75;;
41657;SDS011;27347;57.132;-2.084;2022-11-04T12:50:34;2.53;;;0.60;;
41657;SDS011;27347;57.132;-2.084;2022-11-04T13:01:16;2.40;;;0.70;;
41657;SDS011;27347;57.132;-2.084;2022-11-04T13:07:21;2.30;;;0.60;;
41657;SDS011;27347;57.132;-2.084;2022-11-04T13:09:50;1.70;;;0.55;;
41657;SDS011;27347;57.132;-2.084;2022-11-04T13:12:22;1.83;;;0.80;;
41657;SDS011;27347;57.132;-2.084;2022-11-04T13:14:53;3.08;;;0.70;;
41657;SDS011;27347;57.132;-2.084;2022-11-04T13:17:37;2.60;;;0.80;;
41657;SDS011;27347;57.132;-2.084;2022-11-04T13:20:06;3.70;;;1.10;;
41657;SDS011;27347;57.132;-2.084;2022-11-04T13:22:48;4.13;;;1.05;;
41657;SDS011;27347;57.132;-2.084;2022-11-04T13:27:52;5.68;;;0.70;;
41657;SDS011;27347;57.132;-2.084;2022-11-04T13:38:39;0.35;;;0.30;;
41657;SDS011;27347;57.132;-2.084;2022-11-04T13:43:51;1.73;;;0.50;;
41657;SDS011;27347;57.132;-2.084;2022-11-04T13:48:56;4.22;;;0.75;;
41657;SDS011;27347;57.132;-2.084;2022-11-04T13:51:24;0.82;;;0.40;;
41657;SDS011;27347;57.132;-2.084;2022-11-04T13:53:58;2.40;;;0.60;;
41657;SDS011;27347;57.132;-2.084;2022-11-04T13:56:31;1.38;;;0.50;;
41657;SDS011;27347;57.132;-2.084;2022-11-04T14:01:46;1.00;;;0.60;;
41657;SDS011;27347;57.132;-2.084;2022-11-04T14:07:18;2.55;;;0.70;;
41657;SDS011;27347;57.132;-2.084;2022-11-04T14:14:43;4.38;;;0.80;;
41657;SDS011;27347;57.132;-2.084;2022-11-04T14:22:29;4.63;;;1.27;;
41657;SDS011;27347;57.132;-2.084;2022-11-04T14:24:56;3.08;;;1.30;;
41657;SDS011;27347;57.132;-2.084;2022-11-04T14:27:23;3.25;;;1.42;;
41657;SDS011;27347;57.132;-2.084;2022-11-04T14:29:50;5.00;;;1.35;;
41657;SDS011;27347;57.132;-2.084;2022-11-04T14:32:17;6.05;;;1.50;;
41657;SDS011;27347;57.132;-2.084;2022-11-04T14:34:47;4.20;;;1.67;;
41657;SDS011;27347;57.132;-2.084;2022-11-04T14:37:22;5.07;;;1.77;;
41657;SDS011;27347;57.132;-2.084;2022-11-04T14:39:53;2.80;;;1.00;;
41657;SDS011;27347;57.132;-2.084;2022-11-04T14:45:08;3.40;;;1.40;;
41657;SDS011;27347;57.132;-2.084;2022-11-04T14:47:40;4.55;;;1.58;;
41657;SDS011;27347;57.132;-2.084;2022-11-04T14:50:07;3.95;;;1.65;;
41657;SDS011;27347;57.132;-2.084;2022-11-04T14:57:37;3.13;;;1.40;;
41657;SDS011;27347;57.132;-2.084;2022-11-04T15:03:24;2.47;;;1.45;;
41657;SDS011;27347;57.132;-2.084;2022-11-04T15:05:51;2.72;;;1.25;;
41657;SDS011;27347;57.132;-2.084;2022-11-04T15:09:16;4.18;;;1.50;;
41657;SDS011;27347;57.132;-2.084;2022-11-04T15:13:48;4.57;;;1.48;;
41657;SDS011;27347;57.132;-2.084;2022-11-04T15:16:18;2.63;;;1.45;;
41657;SDS011;27347;57.132;-2.084;2022-11-04T15:18:45;5.07;;;1.92;;
41657;SDS011;27347;57.132;-2.084;2022-11-04T15:21:11;3.55;;;1.30;;
41657;SDS011;27347;57.132;-2.084;2022-11-04T15:23:39;4.25;;;1.77;;
41657;SDS011;27347;57.132;-2.084;2022-11-04T15:26:29;2.25;;;1.60;;
41657;SDS011;27347;57.132;-2.084;2022-11-04T15:28:54;4.43;;;1.75;;
41657;SDS011;27347;57.132;-2.084;2022-11-04T15:31:21;6.78;;;1.58;;
41657;SDS011;27347;57.132;-2.084;2022-11-04T15:34:01;3.05;;;1.40;;
41657;SDS011;27347;57.132;-2.084;2022-11-04T15:36:32;5.10;;;1.40;;
41657;SDS011;27347;57.132;-2.084;2022-11-04T15:39:13;5.40;;;1.50;;
41657;SDS011;27347;57.132;-2.084;2022-11-04T15:41:42;1.38;;;1.10;;
41657;SDS011;27347;57.132;-2.084;2022-11-04T15:44:31;4.05;;;1.27;;
41657;SDS011;27347;57.132;-2.084;2022-11-04T15:47:00;2.35;;;1.40;;
41657;SDS011;27347;57.132;-2.084;2022-11-04T15:49:30;2.67;;;1.65;;
41657;SDS011;27347;57.132;-2.084;2022-11-04T15:51:58;3.05;;;1.45;;
41657;SDS011;27347;57.132;-2.084;2022-11-04T15:54:28;6.40;;;1.90;;
41657;SDS011;27347;57.132;-2.084;2022-11-04T15:56:57;4.63;;;1.90;;
41657;SDS011;27347;57.132;-2.084;2022-11-04T15:59:26;2.95;;;1.50;;
41657;SDS011;27347;57.132;-2.084;2022-11-04T16:01:53;3.83;;;1.65;;
41657;SDS011;27347;57.132;-2.084;2022-11-04T16:04:20;4.22;;;1.60;;
41657;SDS011;27347;57.132;-2.084;2022-11-04T16:07:00;4.38;;;1.80;;
41657;SDS011;27347;57.132;-2.084;2022-11-04T16:12:23;6.53;;;1.95;;
41657;SDS011;27347;57.132;-2.084;2022-11-04T16:14:53;4.10;;;1.55;;
41657;SDS011;27347;57.132;-2.084;2022-11-04T16:17:20;3.65;;;1.40;;
41657;SDS011;27347;57.132;-2.084;2022-11-04T16:19:55;3.17;;;1.40;;
41657;SDS011;27347;57.132;-2.084;2022-11-04T16:22:30;4.50;;;1.60;;
41657;SDS011;27347;57.132;-2.084;2022-11-04T16:24:57;3.13;;;1.40;;
41657;SDS011;27347;57.132;-2.084;2022-11-04T16:27:32;3.47;;;1.27;;
41657;SDS011;27347;57.132;-2.084;2022-11-04T16:32:41;3.95;;;1.30;;
41657;SDS011;27347;57.132;-2.084;2022-11-04T16:35:18;2.20;;;1.20;;
41657;SDS011;27347;57.132;-2.084;2022-11-04T16:37:46;2.03;;;1.27;;
41657;SDS011;27347;57.132;-2.084;2022-11-04T16:40:12;2.92;;;1.40;;
41657;SDS011;27347;57.132;-2.084;2022-11-04T16:42:38;3.10;;;1.40;;
41657;SDS011;27347;57.132;-2.084;2022-11-04T16:45:04;5.18;;;1.33;;
41657;SDS011;27347;57.132;-2.084;2022-11-04T16:47:31;3.33;;;1.50;;
41657;SDS011;27347;57.132;-2.084;2022-11-04T16:50:01;3.72;;;1.52;;
41657;SDS011;27347;57.132;-2.084;2022-11-04T16:52:26;3.58;;;1.60;;
41657;SDS011;27347;57.132;-2.084;2022-11-04T16:54:52;6.45;;;1.98;;
41657;SDS011;27347;57.132;-2.084;2022-11-04T16:57:20;2.67;;;1.50;;
41657;SDS011;27347;57.132;-2.084;2022-11-04T16:59:46;4.13;;;1.92;;
41657;SDS011;27347;57.132;-2.084;2022-11-04T17:04:50;5.07;;;1.70;;
41657;SDS011;27347;57.132;-2.084;2022-11-04T17:07:16;2.78;;;1.85;;
41657;SDS011;27347;57.132;-2.084;2022-11-04T17:09:41;5.57;;;1.95;;
41657;SDS011;27347;57.132;-2.084;2022-11-04T17:12:07;2.10;;;1.27;;
41657;SDS011;27347;57.132;-2.084;2022-11-04T17:14:32;2.60;;;1.48;;
41657;SDS011;27347;57.132;-2.084;2022-11-04T17:16:59;3.75;;;1.80;;
41657;SDS011;27347;57.132;-2.084;2022-11-04T17:19:24;3.67;;;1.75;;
41657;SDS011;27347;57.132;-2.084;2022-11-04T17:21:49;2.40;;;1.50;;
41657;SDS011;27347;57.132;-2.084;2022-11-04T17:24:15;4.05;;;1.40;;
41657;SDS011;27347;57.132;-2.084;2022-11-04T17:26:41;1.60;;;1.10;;
41657;SDS011;27347;57.132;-2.084;2022-11-04T17:29:06;2.65;;;1.50;;
41657;SDS011;27347;57.132;-2.084;2022-11-04T17:31:32;6.55;;;2.10;;
41657;SDS011;27347;57.132;-2.084;2022-11-04T17:33:57;4.32;;;1.85;;
41657;SDS011;27347;57.132;-2.084;2022-11-04T17:36:23;6.97;;;2.33;;
41657;SDS011;27347;57.132;-2.084;2022-11-04T17:38:48;4.07;;;3.10;;
41657;SDS011;27347;57.132;-2.084;2022-11-04T17:41:14;6.70;;;2.97;;
41657;SDS011;27347;57.132;-2.084;2022-11-04T17:43:57;7.10;;;3.10;;
41657;SDS011;27347;57.132;-2.084;2022-11-04T17:46:29;4.88;;;2.65;;
41657;SDS011;27347;57.132;-2.084;2022-11-04T17:48:58;7.47;;;3.03;;
41657;SDS011;27347;57.132;-2.084;2022-11-04T17:51:44;7.13;;;2.72;;
41657;SDS011;27347;57.132;-2.084;2022-11-04T17:54:11;7.97;;;3.22;;
41657;SDS011;27347;57.132;-2.084;2022-11-04T17:56:37;7.90;;;3.08;;
41657;SDS011;27347;57.132;-2.084;2022-11-04T17:59:04;5.43;;;2.92;;
41657;SDS011;27347;57.132;-2.084;2022-11-04T18:01:30;5.82;;;2.83;;
41657;SDS011;27347;57.132;-2.084;2022-11-04T18:03:57;5.43;;;2.97;;